sensor_id;sensor_type;location;lat;lon;timestamp;temperature;humidity
34829;DHT22;21042;47.620;12.188;2022-10-16T00:01:12;13.20;99.90
34829;DHT22;21042;47.620;12.188;2022-10-16T00:03:41;13.20;99.90
34829;DHT22;21042;47.620;12.188;2022-10-16T00:06:09;13.20;99.90
34829;DHT22;21042;47.620;12.188;2022-10-16T00:08:37;13.10;99.90
34829;DHT22;21042;47.620;12.188;2022-10-16T00:11:10;13.10;99.90
34829;DHT22;21042;47.620;12.188;2022-10-16T00:13:40;13.10;99.90
34829;DHT22;21042;47.620;12.188;2022-10-16T00:16:08;13.00;99.90
34829;DHT22;21042;47.620;12.188;2022-10-16T00:18:35;13.00;99.90
34829;DHT22;21042;47.620;12.188;2022-10-16T00:21:05;13.00;99.90
34829;DHT22;21042;47.620;12.188;2022-10-16T00:23:33;12.90;99.90
34829;DHT22;21042;47.620;12.188;2022-10-16T00:26:03;12.90;99.90
34829;DHT22;21042;47.620;12.188;2022-10-16T00:28:30;12.90;99.90
34829;DHT22;21042;47.620;12.188;2022-10-16T00:30:57;12.90;99.90
34829;DHT22;21042;47.620;12.188;2022-10-16T00:33:24;12.80;99.90
34829;DHT22;21042;47.620;12.188;2022-10-16T00:35:51;12.80;99.90
34829;DHT22;21042;47.620;12.188;2022-10-16T00:38:18;12.90;99.90
34829;DHT22;21042;47.620;12.188;2022-10-16T00:40:45;12.80;99.90
34829;DHT22;21042;47.620;12.188;2022-10-16T00:46:16;12.80;99.90
34829;DHT22;21042;47.620;12.188;2022-10-16T00:48:57;12.80;99.90
34829;DHT22;21042;47.620;12.188;2022-10-16T00:51:32;12.80;99.90
34829;DHT22;21042;47.620;12.188;2022-10-16T00:54:00;12.70;99.90
34829;DHT22;21042;47.620;12.188;2022-10-16T00:56:28;12.70;99.90
34829;DHT22;21042;47.620;12.188;2022-10-16T00:58:55;12.70;99.90
34829;DHT22;21042;47.620;12.188;2022-10-16T01:01:22;12.80;99.90
34829;DHT22;21042;47.620;12.188;2022-10-16T01:03:49;12.70;99.90
34829;DHT22;21042;47.620;12.188;2022-10-16T01:06:34;12.70;99.90
34829;DHT22;21042;47.620;12.188;2022-10-16T01:09:06;12.70;99.90
34829;DHT22;21042;47.620;12.188;2022-10-16T01:14:48;12.70;99.90
34829;DHT22;21042;47.620;12.188;2022-10-16T01:17:19;12.60;99.90
34829;DHT22;21042;47.620;12.188;2022-10-16T01:20:00;12.60;99.90
34829;DHT22;21042;47.620;12.188;2022-10-16T01:23:04;12.60;99.90
34829;DHT22;21042;47.620;12.188;2022-10-16T01:25:59;12.60;99.90
34829;DHT22;21042;47.620;12.188;2022-10-16T01:31:18;12.50;99.90
34829;DHT22;21042;47.620;12.188;2022-10-16T01:33:51;12.50;99.90
34829;DHT22;21042;47.620;12.188;2022-10-16T01:36:35;12.50;99.90
34829;DHT22;21042;47.620;12.188;2022-10-16T01:39:04;12.50;99.90
34829;DHT22;21042;47.620;12.188;2022-10-16T01:41:38;12.40;99.90
34829;DHT22;21042;47.620;12.188;2022-10-16T01:44:10;12.40;99.90
34829;DHT22;21042;47.620;12.188;2022-10-16T01:46:41;12.40;99.90
34829;DHT22;21042;47.620;12.188;2022-10-16T01:49:09;12.30;99.90
34829;DHT22;21042;47.620;12.188;2022-10-16T01:51:37;12.30;99.90
34829;DHT22;21042;47.620;12.188;2022-10-16T01:54:06;12.30;99.90
34829;DHT22;21042;47.620;12.188;2022-10-16T01:56:35;12.20;99.90
34829;DHT22;21042;47.620;12.188;2022-10-16T01:59:09;12.20;99.90
34829;DHT22;21042;47.620;12.188;2022-10-16T02:01:41;12.10;99.90
34829;DHT22;21042;47.620;12.188;2022-10-16T02:04:21;12.20;99.90
34829;DHT22;21042;47.620;12.188;2022-10-16T02:06:50;12.10;99.90
34829;DHT22;21042;47.620;12.188;2022-10-16T02:09:18;12.20;99.90
34829;DHT22;21042;47.620;12.188;2022-10-16T02:11:45;12.20;99.90
34829;DHT22;21042;47.620;12.188;2022-10-16T02:14:12;12.30;99.90
34829;DHT22;21042;47.620;12.188;2022-10-16T02:16:44;12.30;99.90
34829;DHT22;21042;47.620;12.188;2022-10-16T02:19:16;12.30;99.90
34829;DHT22;21042;47.620;12.188;2022-10-16T02:21:58;12.20;99.90
34829;DHT22;21042;47.620;12.188;2022-10-16T02:28:01;12.30;99.90
34829;DHT22;21042;47.620;12.188;2022-10-16T02:30:45;12.20;99.90
34829;DHT22;21042;47.620;12.188;2022-10-16T02:33:15;12.20;99.90
34829;DHT22;21042;47.620;12.188;2022-10-16T02:35:45;12.20;99.90
34829;DHT22;21042;47.620;12.188;2022-10-16T02:38:14;12.30;99.90
34829;DHT22;21042;47.620;12.188;2022-10-16T02:40:41;12.20;99.90
34829;DHT22;21042;47.620;12.188;2022-10-16T02:43:10;12.30;99.90
34829;DHT22;21042;47.620;12.188;2022-10-16T02:45:37;12.20;99.90
34829;DHT22;21042;47.620;12.188;2022-10-16T02:48:04;12.20;99.90
34829;DHT22;21042;47.620;12.188;2022-10-16T02:50:31;12.20;99.90
34829;DHT22;21042;47.620;12.188;2022-10-16T02:52:58;12.10;99.90
34829;DHT22;21042;47.620;12.188;2022-10-16T02:55:24;12.10;99.90
34829;DHT22;21042;47.620;12.188;2022-10-16T02:57:51;12.00;99.90
34829;DHT22;21042;47.620;12.188;2022-10-16T03:00:18;11.90;99.90
34829;DHT22;21042;47.620;12.188;2022-10-16T03:02:45;12.00;99.90
34829;DHT22;21042;47.620;12.188;2022-10-16T03:05:13;12.00;99.90
34829;DHT22;21042;47.620;12.188;2022-10-16T03:07:40;12.00;99.90
34829;DHT22;21042;47.620;12.188;2022-10-16T03:10:07;12.00;99.90
34829;DHT22;21042;47.620;12.188;2022-10-16T03:12:34;12.00;99.90
34829;DHT22;21042;47.620;12.188;2022-10-16T03:15:01;11.80;99.90
34829;DHT22;21042;47.620;12.188;2022-10-16T03:17:28;11.80;99.90
34829;DHT22;21042;47.620;12.188;2022-10-16T03:19:55;11.90;99.90
34829;DHT22;21042;47.620;12.188;2022-10-16T03:22:21;11.80;99.90
34829;DHT22;21042;47.620;12.188;2022-10-16T03:24:48;11.90;99.90
34829;DHT22;21042;47.620;12.188;2022-10-16T03:27:15;11.90;99.90
34829;DHT22;21042;47.620;12.188;2022-10-16T03:29:42;11.90;99.90
34829;DHT22;21042;47.620;12.188;2022-10-16T03:32:08;11.90;99.90
34829;DHT22;21042;47.620;12.188;2022-10-16T03:34:35;11.90;99.90
34829;DHT22;21042;47.620;12.188;2022-10-16T03:37:02;11.90;99.90
34829;DHT22;21042;47.620;12.188;2022-10-16T03:39:29;11.80;99.90
34829;DHT22;21042;47.620;12.188;2022-10-16T03:41:55;11.80;99.90
34829;DHT22;21042;47.620;12.188;2022-10-16T03:44:22;11.80;99.90
34829;DHT22;21042;47.620;12.188;2022-10-16T03:46:49;11.80;99.90
34829;DHT22;21042;47.620;12.188;2022-10-16T03:49:15;11.80;99.90
34829;DHT22;21042;47.620;12.188;2022-10-16T03:51:42;11.80;99.90
34829;DHT22;21042;47.620;12.188;2022-10-16T03:54:10;11.70;99.90
34829;DHT22;21042;47.620;12.188;2022-10-16T03:56:37;11.70;99.90
34829;DHT22;21042;47.620;12.188;2022-10-16T03:59:03;11.70;99.90
34829;DHT22;21042;47.620;12.188;2022-10-16T04:01:30;11.70;99.90
34829;DHT22;21042;47.620;12.188;2022-10-16T04:03:57;11.60;99.90
34829;DHT22;21042;47.620;12.188;2022-10-16T04:06:24;11.60;99.90
34829;DHT22;21042;47.620;12.188;2022-10-16T04:08:50;11.50;99.90
34829;DHT22;21042;47.620;12.188;2022-10-16T04:11:17;11.60;99.90
34829;DHT22;21042;47.620;12.188;2022-10-16T04:13:44;11.40;99.90
34829;DHT22;21042;47.620;12.188;2022-10-16T04:16:11;11.40;99.90
34829;DHT22;21042;47.620;12.188;2022-10-16T04:18:37;11.30;99.90
34829;DHT22;21042;47.620;12.188;2022-10-16T04:21:05;11.30;99.90
34829;DHT22;21042;47.620;12.188;2022-10-16T04:23:32;11.30;99.90
34829;DHT22;21042;47.620;12.188;2022-10-16T04:26:00;11.30;99.90
34829;DHT22;21042;47.620;12.188;2022-10-16T04:28:27;11.30;99.90
34829;DHT22;21042;47.620;12.188;2022-10-16T04:30:54;11.30;99.90
34829;DHT22;21042;47.620;12.188;2022-10-16T04:33:21;11.30;99.90
34829;DHT22;21042;47.620;12.188;2022-10-16T04:35:47;11.30;99.90
34829;DHT22;21042;47.620;12.188;2022-10-16T04:38:14;11.20;99.90
34829;DHT22;21042;47.620;12.188;2022-10-16T04:40:42;11.20;99.90
34829;DHT22;21042;47.620;12.188;2022-10-16T04:43:09;11.20;99.90
34829;DHT22;21042;47.620;12.188;2022-10-16T04:45:36;11.10;99.90
34829;DHT22;21042;47.620;12.188;2022-10-16T04:48:02;11.10;99.90
34829;DHT22;21042;47.620;12.188;2022-10-16T04:50:29;11.10;99.90
34829;DHT22;21042;47.620;12.188;2022-10-16T04:53:06;11.10;99.90
34829;DHT22;21042;47.620;12.188;2022-10-16T04:55:33;11.10;99.90
34829;DHT22;21042;47.620;12.188;2022-10-16T04:58:00;11.10;99.90
34829;DHT22;21042;47.620;12.188;2022-10-16T05:00:26;11.10;99.90
34829;DHT22;21042;47.620;12.188;2022-10-16T05:02:53;11.20;99.90
34829;DHT22;21042;47.620;12.188;2022-10-16T05:05:20;11.10;99.90
34829;DHT22;21042;47.620;12.188;2022-10-16T05:07:47;11.10;99.90
34829;DHT22;21042;47.620;12.188;2022-10-16T05:10:16;11.10;99.90
34829;DHT22;21042;47.620;12.188;2022-10-16T05:12:43;11.10;99.90
34829;DHT22;21042;47.620;12.188;2022-10-16T05:15:10;11.10;99.90
34829;DHT22;21042;47.620;12.188;2022-10-16T05:17:37;11.10;99.90
34829;DHT22;21042;47.620;12.188;2022-10-16T05:20:10;11.00;99.90
34829;DHT22;21042;47.620;12.188;2022-10-16T05:22:37;11.00;99.90
34829;DHT22;21042;47.620;12.188;2022-10-16T05:25:04;11.00;99.90
34829;DHT22;21042;47.620;12.188;2022-10-16T05:27:31;11.00;99.90
34829;DHT22;21042;47.620;12.188;2022-10-16T05:29:58;11.10;99.90
34829;DHT22;21042;47.620;12.188;2022-10-16T05:32:24;11.00;99.90
34829;DHT22;21042;47.620;12.188;2022-10-16T05:34:51;11.00;99.90
34829;DHT22;21042;47.620;12.188;2022-10-16T05:37:18;10.90;99.90
34829;DHT22;21042;47.620;12.188;2022-10-16T05:39:45;11.00;99.90
34829;DHT22;21042;47.620;12.188;2022-10-16T05:42:12;11.00;99.90
34829;DHT22;21042;47.620;12.188;2022-10-16T05:44:38;11.00;99.90
34829;DHT22;21042;47.620;12.188;2022-10-16T05:47:05;11.00;99.90
34829;DHT22;21042;47.620;12.188;2022-10-16T05:49:32;11.10;99.90
34829;DHT22;21042;47.620;12.188;2022-10-16T05:52:04;11.00;99.90
34829;DHT22;21042;47.620;12.188;2022-10-16T05:54:31;11.10;99.90
34829;DHT22;21042;47.620;12.188;2022-10-16T05:56:58;11.30;99.90
34829;DHT22;21042;47.620;12.188;2022-10-16T05:59:24;11.10;99.90
34829;DHT22;21042;47.620;12.188;2022-10-16T06:01:51;11.10;99.90
34829;DHT22;21042;47.620;12.188;2022-10-16T06:04:19;11.10;99.90
34829;DHT22;21042;47.620;12.188;2022-10-16T06:06:46;11.10;99.90
34829;DHT22;21042;47.620;12.188;2022-10-16T06:09:13;11.20;99.90
34829;DHT22;21042;47.620;12.188;2022-10-16T06:11:39;11.30;99.90
34829;DHT22;21042;47.620;12.188;2022-10-16T06:14:08;11.30;99.90
34829;DHT22;21042;47.620;12.188;2022-10-16T06:16:36;11.30;99.90
34829;DHT22;21042;47.620;12.188;2022-10-16T06:19:04;11.40;99.90
34829;DHT22;21042;47.620;12.188;2022-10-16T06:21:33;11.40;99.90
34829;DHT22;21042;47.620;12.188;2022-10-16T06:23:59;11.40;99.90
34829;DHT22;21042;47.620;12.188;2022-10-16T06:26:28;11.40;99.90
34829;DHT22;21042;47.620;12.188;2022-10-16T06:28:56;11.50;99.90
34829;DHT22;21042;47.620;12.188;2022-10-16T06:31:24;11.50;99.90
34829;DHT22;21042;47.620;12.188;2022-10-16T06:33:54;11.40;99.90
34829;DHT22;21042;47.620;12.188;2022-10-16T06:36:22;11.40;99.90
34829;DHT22;21042;47.620;12.188;2022-10-16T06:38:49;11.50;99.90
34829;DHT22;21042;47.620;12.188;2022-10-16T06:41:18;11.50;99.90
34829;DHT22;21042;47.620;12.188;2022-10-16T06:43:46;11.50;99.90
34829;DHT22;21042;47.620;12.188;2022-10-16T06:46:14;11.60;99.90
34829;DHT22;21042;47.620;12.188;2022-10-16T06:48:41;11.50;99.90
34829;DHT22;21042;47.620;12.188;2022-10-16T06:51:14;11.60;99.90
34829;DHT22;21042;47.620;12.188;2022-10-16T06:53:43;11.70;99.90
34829;DHT22;21042;47.620;12.188;2022-10-16T06:56:29;11.80;99.90
34829;DHT22;21042;47.620;12.188;2022-10-16T06:58:57;11.80;99.90
34829;DHT22;21042;47.620;12.188;2022-10-16T07:01:25;11.90;99.90
34829;DHT22;21042;47.620;12.188;2022-10-16T07:03:52;12.00;99.90
34829;DHT22;21042;47.620;12.188;2022-10-16T07:06:21;12.10;99.90
34829;DHT22;21042;47.620;12.188;2022-10-16T07:08:48;12.10;99.90
34829;DHT22;21042;47.620;12.188;2022-10-16T07:11:16;12.30;99.90
34829;DHT22;21042;47.620;12.188;2022-10-16T07:13:44;12.50;99.90
34829;DHT22;21042;47.620;12.188;2022-10-16T07:16:20;12.60;99.90
34829;DHT22;21042;47.620;12.188;2022-10-16T07:18:47;12.60;99.90
34829;DHT22;21042;47.620;12.188;2022-10-16T07:21:20;12.60;99.90
34829;DHT22;21042;47.620;12.188;2022-10-16T07:23:51;12.60;99.90
34829;DHT22;21042;47.620;12.188;2022-10-16T07:26:18;12.50;99.90
34829;DHT22;21042;47.620;12.188;2022-10-16T07:28:45;12.40;99.90
34829;DHT22;21042;47.620;12.188;2022-10-16T07:31:13;12.50;99.90
34829;DHT22;21042;47.620;12.188;2022-10-16T07:33:42;12.60;99.90
34829;DHT22;21042;47.620;12.188;2022-10-16T07:36:11;12.70;99.90
34829;DHT22;21042;47.620;12.188;2022-10-16T07:38:42;12.70;99.90
34829;DHT22;21042;47.620;12.188;2022-10-16T07:41:11;12.80;99.90
34829;DHT22;21042;47.620;12.188;2022-10-16T07:43:39;13.00;99.90
34829;DHT22;21042;47.620;12.188;2022-10-16T07:46:06;13.10;99.90
34829;DHT22;21042;47.620;12.188;2022-10-16T07:48:34;13.20;99.90
34829;DHT22;21042;47.620;12.188;2022-10-16T07:51:02;13.20;99.90
34829;DHT22;21042;47.620;12.188;2022-10-16T07:53:30;13.30;99.90
34829;DHT22;21042;47.620;12.188;2022-10-16T07:55:59;13.40;99.90
34829;DHT22;21042;47.620;12.188;2022-10-16T07:58:27;13.50;99.90
34829;DHT22;21042;47.620;12.188;2022-10-16T08:00:54;13.60;99.90
34829;DHT22;21042;47.620;12.188;2022-10-16T08:03:22;13.70;99.90
34829;DHT22;21042;47.620;12.188;2022-10-16T08:05:49;13.90;99.90
34829;DHT22;21042;47.620;12.188;2022-10-16T08:08:17;14.20;99.90
34829;DHT22;21042;47.620;12.188;2022-10-16T08:10:44;14.40;99.90
34829;DHT22;21042;47.620;12.188;2022-10-16T08:13:11;14.60;99.90
34829;DHT22;21042;47.620;12.188;2022-10-16T08:15:42;14.70;99.90
34829;DHT22;21042;47.620;12.188;2022-10-16T08:18:10;14.60;99.90
34829;DHT22;21042;47.620;12.188;2022-10-16T08:20:38;14.70;99.90
34829;DHT22;21042;47.620;12.188;2022-10-16T08:23:06;14.70;99.90
34829;DHT22;21042;47.620;12.188;2022-10-16T08:25:36;14.80;99.90
34829;DHT22;21042;47.620;12.188;2022-10-16T08:28:08;14.70;99.90
34829;DHT22;21042;47.620;12.188;2022-10-16T08:30:35;14.90;99.90
34829;DHT22;21042;47.620;12.188;2022-10-16T08:33:02;14.90;99.90
34829;DHT22;21042;47.620;12.188;2022-10-16T08:35:29;14.90;99.90
34829;DHT22;21042;47.620;12.188;2022-10-16T08:37:56;15.00;99.90
34829;DHT22;21042;47.620;12.188;2022-10-16T08:40:28;15.00;99.90
34829;DHT22;21042;47.620;12.188;2022-10-16T08:48:50;15.20;99.90
34829;DHT22;21042;47.620;12.188;2022-10-16T08:53:56;15.50;99.90
34829;DHT22;21042;47.620;12.188;2022-10-16T08:56:25;15.70;99.90
34829;DHT22;21042;47.620;12.188;2022-10-16T08:58:53;15.80;99.90
34829;DHT22;21042;47.620;12.188;2022-10-16T09:01:39;15.90;99.90
34829;DHT22;21042;47.620;12.188;2022-10-16T09:04:44;16.00;99.90
34829;DHT22;21042;47.620;12.188;2022-10-16T09:10:25;16.20;99.90
34829;DHT22;21042;47.620;12.188;2022-10-16T09:13:14;16.20;99.90
34829;DHT22;21042;47.620;12.188;2022-10-16T09:15:53;16.30;99.90
34829;DHT22;21042;47.620;12.188;2022-10-16T09:18:27;16.50;99.90
34829;DHT22;21042;47.620;12.188;2022-10-16T09:21:09;16.60;99.90
34829;DHT22;21042;47.620;12.188;2022-10-16T09:23:38;16.70;99.90
34829;DHT22;21042;47.620;12.188;2022-10-16T09:26:10;16.80;99.90
34829;DHT22;21042;47.620;12.188;2022-10-16T09:28:37;16.90;99.90
34829;DHT22;21042;47.620;12.188;2022-10-16T09:31:04;16.90;99.90
34829;DHT22;21042;47.620;12.188;2022-10-16T09:33:39;17.00;99.90
34829;DHT22;21042;47.620;12.188;2022-10-16T09:36:09;17.20;99.90
34829;DHT22;21042;47.620;12.188;2022-10-16T09:38:37;17.40;99.90
34829;DHT22;21042;47.620;12.188;2022-10-16T09:41:19;17.60;99.90
34829;DHT22;21042;47.620;12.188;2022-10-16T09:43:57;17.80;99.90
34829;DHT22;21042;47.620;12.188;2022-10-16T09:46:30;17.90;99.90
34829;DHT22;21042;47.620;12.188;2022-10-16T09:49:00;17.90;99.90
34829;DHT22;21042;47.620;12.188;2022-10-16T09:51:36;17.90;99.90
34829;DHT22;21042;47.620;12.188;2022-10-16T09:56:37;18.10;99.90
34829;DHT22;21042;47.620;12.188;2022-10-16T09:59:13;18.30;99.90
34829;DHT22;21042;47.620;12.188;2022-10-16T10:01:51;18.40;99.90
34829;DHT22;21042;47.620;12.188;2022-10-16T10:04:19;18.40;99.90
34829;DHT22;21042;47.620;12.188;2022-10-16T10:07:05;18.50;99.90
34829;DHT22;21042;47.620;12.188;2022-10-16T10:09:38;18.40;99.90
34829;DHT22;21042;47.620;12.188;2022-10-16T10:12:06;18.30;99.90
34829;DHT22;21042;47.620;12.188;2022-10-16T10:14:52;18.40;99.90
34829;DHT22;21042;47.620;12.188;2022-10-16T10:17:20;18.50;99.90
34829;DHT22;21042;47.620;12.188;2022-10-16T10:19:48;18.70;99.90
34829;DHT22;21042;47.620;12.188;2022-10-16T10:22:39;18.70;99.90
34829;DHT22;21042;47.620;12.188;2022-10-16T10:30:24;18.70;99.90
34829;DHT22;21042;47.620;12.188;2022-10-16T10:35:45;19.00;99.90
34829;DHT22;21042;47.620;12.188;2022-10-16T10:45:51;19.20;99.90
34829;DHT22;21042;47.620;12.188;2022-10-16T10:48:34;19.20;99.90
34829;DHT22;21042;47.620;12.188;2022-10-16T10:54:14;19.20;99.90
34829;DHT22;21042;47.620;12.188;2022-10-16T10:57:02;19.30;99.90
34829;DHT22;21042;47.620;12.188;2022-10-16T11:02:10;19.70;99.90
34829;DHT22;21042;47.620;12.188;2022-10-16T11:07:57;19.80;99.90
34829;DHT22;21042;47.620;12.188;2022-10-16T11:10:33;20.00;99.90
34829;DHT22;21042;47.620;12.188;2022-10-16T11:13:10;19.90;99.90
34829;DHT22;21042;47.620;12.188;2022-10-16T11:15:43;20.00;99.90
34829;DHT22;21042;47.620;12.188;2022-10-16T11:18:30;20.10;99.90
34829;DHT22;21042;47.620;12.188;2022-10-16T11:21:05;20.10;99.90
34829;DHT22;21042;47.620;12.188;2022-10-16T11:26:13;20.10;99.90
34829;DHT22;21042;47.620;12.188;2022-10-16T11:28:48;20.10;99.90
34829;DHT22;21042;47.620;12.188;2022-10-16T11:34:26;19.90;99.90
34829;DHT22;21042;47.620;12.188;2022-10-16T11:37:12;20.00;99.90
34829;DHT22;21042;47.620;12.188;2022-10-16T11:39:43;20.00;99.90
34829;DHT22;21042;47.620;12.188;2022-10-16T11:42:21;20.10;99.90
34829;DHT22;21042;47.620;12.188;2022-10-16T11:47:35;20.20;99.90
34829;DHT22;21042;47.620;12.188;2022-10-16T11:50:32;20.20;99.90
34829;DHT22;21042;47.620;12.188;2022-10-16T11:53:03;20.30;99.90
34829;DHT22;21042;47.620;12.188;2022-10-16T11:55:36;20.50;99.90
34829;DHT22;21042;47.620;12.188;2022-10-16T11:58:20;20.60;99.90
34829;DHT22;21042;47.620;12.188;2022-10-16T12:01:15;20.80;99.90
34829;DHT22;21042;47.620;12.188;2022-10-16T12:03:56;20.80;99.90
34829;DHT22;21042;47.620;12.188;2022-10-16T12:06:42;20.90;99.90
34829;DHT22;21042;47.620;12.188;2022-10-16T12:09:19;20.90;99.90
34829;DHT22;21042;47.620;12.188;2022-10-16T12:11:47;21.10;99.90
34829;DHT22;21042;47.620;12.188;2022-10-16T12:16:56;21.30;99.90
34829;DHT22;21042;47.620;12.188;2022-10-16T12:19:26;21.30;99.90
34829;DHT22;21042;47.620;12.188;2022-10-16T12:21:59;21.30;99.90
34829;DHT22;21042;47.620;12.188;2022-10-16T12:24:39;21.30;99.90
34829;DHT22;21042;47.620;12.188;2022-10-16T12:27:31;21.30;99.90
34829;DHT22;21042;47.620;12.188;2022-10-16T12:30:04;21.30;99.90
34829;DHT22;21042;47.620;12.188;2022-10-16T12:32:34;21.30;99.90
34829;DHT22;21042;47.620;12.188;2022-10-16T12:35:23;21.30;99.90
34829;DHT22;21042;47.620;12.188;2022-10-16T12:37:51;21.30;99.90
34829;DHT22;21042;47.620;12.188;2022-10-16T12:40:31;21.40;99.90
34829;DHT22;21042;47.620;12.188;2022-10-16T12:42:58;21.40;99.90
34829;DHT22;21042;47.620;12.188;2022-10-16T12:47:54;21.40;99.90
34829;DHT22;21042;47.620;12.188;2022-10-16T12:50:25;21.50;99.90
34829;DHT22;21042;47.620;12.188;2022-10-16T12:52:52;21.60;99.90
34829;DHT22;21042;47.620;12.188;2022-10-16T12:55:21;21.60;99.90
34829;DHT22;21042;47.620;12.188;2022-10-16T12:58:20;21.50;99.90
34829;DHT22;21042;47.620;12.188;2022-10-16T13:01:00;21.50;99.90
34829;DHT22;21042;47.620;12.188;2022-10-16T13:06:25;21.60;99.90
34829;DHT22;21042;47.620;12.188;2022-10-16T13:09:15;21.60;99.90
34829;DHT22;21042;47.620;12.188;2022-10-16T13:11:52;21.60;99.90
34829;DHT22;21042;47.620;12.188;2022-10-16T13:14:38;21.50;99.90
34829;DHT22;21042;47.620;12.188;2022-10-16T13:22:40;21.80;99.90
34829;DHT22;21042;47.620;12.188;2022-10-16T13:25:35;21.70;99.90
34829;DHT22;21042;47.620;12.188;2022-10-16T13:28:10;21.70;99.90
34829;DHT22;21042;47.620;12.188;2022-10-16T13:30:39;21.60;99.90
34829;DHT22;21042;47.620;12.188;2022-10-16T13:33:19;21.60;99.90
34829;DHT22;21042;47.620;12.188;2022-10-16T13:35:49;21.70;99.90
34829;DHT22;21042;47.620;12.188;2022-10-16T13:38:22;21.70;99.90
34829;DHT22;21042;47.620;12.188;2022-10-16T13:40:58;21.80;99.90
34829;DHT22;21042;47.620;12.188;2022-10-16T13:43:32;21.80;99.90
34829;DHT22;21042;47.620;12.188;2022-10-16T13:46:05;21.80;99.90
34829;DHT22;21042;47.620;12.188;2022-10-16T13:48:33;21.90;99.90
34829;DHT22;21042;47.620;12.188;2022-10-16T13:51:01;21.80;99.90
34829;DHT22;21042;47.620;12.188;2022-10-16T13:53:30;21.90;99.90
34829;DHT22;21042;47.620;12.188;2022-10-16T13:55:57;21.90;99.90
34829;DHT22;21042;47.620;12.188;2022-10-16T13:58:24;22.00;99.90
34829;DHT22;21042;47.620;12.188;2022-10-16T14:00:56;22.00;99.90
34829;DHT22;21042;47.620;12.188;2022-10-16T14:03:24;22.10;99.90
34829;DHT22;21042;47.620;12.188;2022-10-16T14:05:53;22.10;99.90
34829;DHT22;21042;47.620;12.188;2022-10-16T14:08:23;22.10;99.90
34829;DHT22;21042;47.620;12.188;2022-10-16T14:10:53;22.10;99.90
34829;DHT22;21042;47.620;12.188;2022-10-16T14:13:50;22.10;99.90
34829;DHT22;21042;47.620;12.188;2022-10-16T14:16:20;22.10;99.90
34829;DHT22;21042;47.620;12.188;2022-10-16T14:19:01;22.20;99.90
34829;DHT22;21042;47.620;12.188;2022-10-16T14:21:29;22.20;99.90
34829;DHT22;21042;47.620;12.188;2022-10-16T14:23:56;22.20;99.90
34829;DHT22;21042;47.620;12.188;2022-10-16T14:26:27;22.20;99.90
34829;DHT22;21042;47.620;12.188;2022-10-16T14:29:11;22.20;99.90
34829;DHT22;21042;47.620;12.188;2022-10-16T14:31:38;22.20;99.90
34829;DHT22;21042;47.620;12.188;2022-10-16T14:34:24;22.10;99.90
34829;DHT22;21042;47.620;12.188;2022-10-16T14:36:51;22.10;99.90
34829;DHT22;21042;47.620;12.188;2022-10-16T14:39:20;22.00;99.90
34829;DHT22;21042;47.620;12.188;2022-10-16T14:41:50;22.00;99.90
34829;DHT22;21042;47.620;12.188;2022-10-16T14:44:26;22.00;99.90
34829;DHT22;21042;47.620;12.188;2022-10-16T14:46:54;22.00;99.90
34829;DHT22;21042;47.620;12.188;2022-10-16T14:49:22;21.90;99.90
34829;DHT22;21042;47.620;12.188;2022-10-16T14:51:49;21.70;99.90
34829;DHT22;21042;47.620;12.188;2022-10-16T14:54:18;21.50;99.90
34829;DHT22;21042;47.620;12.188;2022-10-16T14:59:27;21.50;99.90
34829;DHT22;21042;47.620;12.188;2022-10-16T15:01:54;21.30;99.90
34829;DHT22;21042;47.620;12.188;2022-10-16T15:04:21;21.20;99.90
34829;DHT22;21042;47.620;12.188;2022-10-16T15:06:48;21.00;99.90
34829;DHT22;21042;47.620;12.188;2022-10-16T15:09:14;20.80;99.90
34829;DHT22;21042;47.620;12.188;2022-10-16T15:11:42;20.60;99.90
34829;DHT22;21042;47.620;12.188;2022-10-16T15:14:12;20.50;99.90
34829;DHT22;21042;47.620;12.188;2022-10-16T15:16:45;20.40;99.90
34829;DHT22;21042;47.620;12.188;2022-10-16T15:19:12;20.30;99.90
34829;DHT22;21042;47.620;12.188;2022-10-16T15:21:39;20.20;99.90
34829;DHT22;21042;47.620;12.188;2022-10-16T15:24:12;20.10;99.90
34829;DHT22;21042;47.620;12.188;2022-10-16T15:26:44;20.00;99.90
34829;DHT22;21042;47.620;12.188;2022-10-16T15:29:13;19.90;99.90
34829;DHT22;21042;47.620;12.188;2022-10-16T15:31:39;19.70;99.90
34829;DHT22;21042;47.620;12.188;2022-10-16T15:34:09;19.50;99.90
34829;DHT22;21042;47.620;12.188;2022-10-16T15:36:37;19.40;99.90
34829;DHT22;21042;47.620;12.188;2022-10-16T15:39:06;19.30;99.90
34829;DHT22;21042;47.620;12.188;2022-10-16T15:41:37;19.10;99.90
34829;DHT22;21042;47.620;12.188;2022-10-16T15:44:04;19.10;99.90
34829;DHT22;21042;47.620;12.188;2022-10-16T15:46:30;18.90;99.90
34829;DHT22;21042;47.620;12.188;2022-10-16T15:48:58;18.90;99.90
34829;DHT22;21042;47.620;12.188;2022-10-16T15:51:26;18.70;99.90
34829;DHT22;21042;47.620;12.188;2022-10-16T15:53:56;18.50;99.90
34829;DHT22;21042;47.620;12.188;2022-10-16T15:56:23;18.30;99.90
34829;DHT22;21042;47.620;12.188;2022-10-16T15:58:52;18.20;99.90
34829;DHT22;21042;47.620;12.188;2022-10-16T16:01:20;18.10;99.90
34829;DHT22;21042;47.620;12.188;2022-10-16T16:03:47;18.00;99.90
34829;DHT22;21042;47.620;12.188;2022-10-16T16:06:14;17.90;99.90
34829;DHT22;21042;47.620;12.188;2022-10-16T16:08:41;17.80;99.90
34829;DHT22;21042;47.620;12.188;2022-10-16T16:11:13;17.80;99.90
34829;DHT22;21042;47.620;12.188;2022-10-16T16:13:40;17.80;99.90
34829;DHT22;21042;47.620;12.188;2022-10-16T16:16:17;17.70;99.90
34829;DHT22;21042;47.620;12.188;2022-10-16T16:18:44;17.60;99.90
34829;DHT22;21042;47.620;12.188;2022-10-16T16:21:11;17.40;99.90
34829;DHT22;21042;47.620;12.188;2022-10-16T16:23:38;17.30;99.90
34829;DHT22;21042;47.620;12.188;2022-10-16T16:26:09;17.20;99.90
34829;DHT22;21042;47.620;12.188;2022-10-16T16:28:37;17.10;99.90
34829;DHT22;21042;47.620;12.188;2022-10-16T16:31:04;17.10;99.90
34829;DHT22;21042;47.620;12.188;2022-10-16T16:33:31;17.00;99.90
34829;DHT22;21042;47.620;12.188;2022-10-16T16:35:59;17.00;99.90
34829;DHT22;21042;47.620;12.188;2022-10-16T16:38:27;16.90;99.90
34829;DHT22;21042;47.620;12.188;2022-10-16T16:40:54;16.70;99.90
34829;DHT22;21042;47.620;12.188;2022-10-16T16:43:26;16.70;99.90
34829;DHT22;21042;47.620;12.188;2022-10-16T16:45:53;16.60;99.90
34829;DHT22;21042;47.620;12.188;2022-10-16T16:48:20;16.60;99.90
34829;DHT22;21042;47.620;12.188;2022-10-16T16:50:47;16.60;99.90
34829;DHT22;21042;47.620;12.188;2022-10-16T16:53:14;16.50;99.90